createdAt,value
2022-09-22T00:01:19.868Z,78105.19
2022-09-22T00:03:49.135Z,78099.25
2022-09-22T00:06:24.348Z,78113.16
2022-09-22T00:08:54.172Z,78109.19
2022-09-22T00:11:28.582Z,78121.09
2022-09-22T00:14:00.602Z,78137.00
2022-09-22T00:16:33.394Z,78135.03
2022-09-22T00:19:00.048Z,78144.97
2022-09-22T00:21:31.082Z,78148.94
2022-09-22T00:23:57.897Z,78141.00
2022-09-22T00:26:24.987Z,78148.94
2022-09-22T00:28:52.836Z,78160.88
2022-09-22T00:31:22.300Z,78166.84
2022-09-22T00:33:49.768Z,78182.75
2022-09-22T00:36:17.948Z,78184.72
2022-09-22T00:38:45.534Z,78198.66
2022-09-22T00:41:18.949Z,78184.72
2022-09-22T00:43:48.603Z,78180.75
2022-09-22T00:46:27.180Z,78172.78
2022-09-22T00:49:01.087Z,78166.84
2022-09-22T00:51:32.584Z,78162.84
2022-09-22T00:54:02.625Z,78148.94
2022-09-22T00:56:37.434Z,78131.03
2022-09-22T00:59:09.947Z,78139.00
2022-09-22T01:01:36.889Z,78152.91
2022-09-22T01:04:04.500Z,78164.84
2022-09-22T01:06:31.171Z,78174.78
2022-09-22T01:08:59.003Z,78178.75
2022-09-22T01:11:26.791Z,78166.84
2022-09-22T01:14:02.461Z,78182.75
2022-09-22T01:16:43.269Z,78188.69
2022-09-22T01:19:25.883Z,78192.69
2022-09-22T01:22:29.222Z,78200.63
2022-09-22T01:25:29.107Z,78212.56
2022-09-22T01:28:10.742Z,78204.59
2022-09-22T01:30:46.282Z,78212.56
2022-09-22T01:33:37.750Z,78192.69
2022-09-22T01:36:22.789Z,78206.59
2022-09-22T01:39:31.637Z,78210.56
2022-09-22T01:42:05.013Z,78210.56
2022-09-22T01:44:36.739Z,78212.56
2022-09-22T01:47:10.652Z,78222.50
2022-09-22T01:49:43.399Z,78224.50
2022-09-22T01:52:16.590Z,78234.44
2022-09-22T01:54:56.952Z,78240.41
2022-09-22T01:57:31.787Z,78240.41
2022-09-22T02:00:03.765Z,78210.56
2022-09-22T02:02:37.925Z,78232.44
2022-09-22T02:05:11.247Z,78256.28
2022-09-22T02:07:44.062Z,78268.22
2022-09-22T02:10:14.794Z,78270.22
2022-09-22T02:12:41.347Z,78284.13
2022-09-22T02:15:31.225Z,78280.16
2022-09-22T02:18:03.243Z,78286.13
2022-09-22T02:20:30.311Z,78294.06
2022-09-22T02:22:57.379Z,78290.09
2022-09-22T02:25:25.051Z,78288.09
2022-09-22T02:27:55.131Z,78296.06
2022-09-22T02:30:23.080Z,78276.19
2022-09-22T02:32:54.098Z,78278.16
2022-09-22T02:35:22.057Z,78260.28
2022-09-22T02:37:56.795Z,78232.44
2022-09-22T02:40:28.700Z,78226.47
2022-09-22T02:43:06.739Z,78216.53
2022-09-22T02:45:43.258Z,78184.72
2022-09-22T02:48:12.475Z,78184.72
2022-09-22T02:50:39.308Z,78200.63
2022-09-22T02:53:16.269Z,78212.56
2022-09-22T02:55:44.306Z,78220.50
2022-09-22T02:58:11.037Z,78236.41
2022-09-22T03:00:37.603Z,78242.38
2022-09-22T03:03:04.615Z,78254.31
2022-09-22T03:05:31.358Z,78250.34
2022-09-22T03:07:57.845Z,78262.25
2022-09-22T03:10:24.362Z,78274.19
2022-09-22T03:13:15.093Z,78276.19
2022-09-22T03:15:37.841Z,78278.16
2022-09-22T03:18:04.556Z,78254.31
2022-09-22T03:20:31.593Z,78276.19
2022-09-22T03:22:58.182Z,78280.16
2022-09-22T03:25:24.819Z,78298.06
2022-09-22T03:27:51.276Z,78304.00
2022-09-22T03:30:17.896Z,78300.03
2022-09-22T03:32:44.331Z,78308.00
2022-09-22T03:35:10.899Z,78321.91
2022-09-22T03:37:37.698Z,78331.84
2022-09-22T03:40:05.196Z,78333.84
2022-09-22T03:42:32.988Z,78333.84
2022-09-22T03:44:59.823Z,78341.78
2022-09-22T03:47:26.409Z,78335.81
2022-09-22T03:49:52.896Z,78327.88
2022-09-22T03:52:19.414Z,78300.03
2022-09-22T03:54:47.186Z,78302.03
2022-09-22T03:57:14.106Z,78288.09
2022-09-22T03:59:40.624Z,78294.06
2022-09-22T04:02:07.292Z,78284.13
2022-09-22T04:04:33.805Z,78280.16
2022-09-22T04:07:06.133Z,78278.16
2022-09-22T04:09:33.463Z,78288.09
2022-09-22T04:12:00.476Z,78284.13
2022-09-22T04:14:27.279Z,78280.16
2022-09-22T04:16:53.919Z,78296.06
2022-09-22T04:19:20.428Z,78313.94
2022-09-22T04:21:46.862Z,78311.97
2022-09-22T04:24:13.355Z,78317.94
2022-09-22T04:26:51.586Z,78327.88
2022-09-22T04:29:22.989Z,78337.81
2022-09-22T04:31:49.678Z,78339.81
2022-09-22T04:34:16.144Z,78363.66
2022-09-22T04:36:42.589Z,78369.63
2022-09-22T04:39:09.086Z,78379.56
2022-09-22T04:41:35.790Z,78377.56
2022-09-22T04:44:02.326Z,78377.56
2022-09-22T04:46:28.850Z,78367.63
2022-09-22T04:48:55.542Z,78373.59
2022-09-22T04:51:22.011Z,78373.59
2022-09-22T04:53:48.492Z,78375.59
2022-09-22T04:56:14.976Z,78381.56
2022-09-22T04:58:41.550Z,78381.56
2022-09-22T05:01:08.171Z,78375.59
2022-09-22T05:03:38.159Z,78391.50
2022-09-22T05:06:06.410Z,78407.41
2022-09-22T05:08:33.248Z,78381.56
2022-09-22T05:10:59.855Z,78399.44
2022-09-22T05:13:26.355Z,78373.59
2022-09-22T05:15:52.975Z,78371.63
2022-09-22T05:18:19.464Z,78365.66
2022-09-22T05:20:45.918Z,78375.59
2022-09-22T05:23:12.383Z,78373.59
2022-09-22T05:25:39.244Z,78357.69
2022-09-22T05:28:05.804Z,78359.69
2022-09-22T05:30:32.364Z,78325.88
2022-09-22T05:32:58.845Z,78351.72
2022-09-22T05:35:25.881Z,78343.78
2022-09-22T05:37:53.704Z,78339.81
2022-09-22T05:40:24.106Z,78345.75
2022-09-22T05:42:52.460Z,78339.81
2022-09-22T05:45:20.477Z,78331.84
2022-09-22T05:47:47.300Z,78323.91
2022-09-22T05:50:15.667Z,78327.88
2022-09-22T05:52:42.487Z,78339.81
2022-09-22T05:55:09.219Z,78335.81
2022-09-22T05:57:35.645Z,78337.81
2022-09-22T06:00:03.436Z,78327.88
2022-09-22T06:02:29.974Z,78317.94
2022-09-22T06:04:56.467Z,78327.88
2022-09-22T06:07:26.392Z,78313.94
2022-09-22T06:09:52.892Z,78317.94
2022-09-22T06:12:19.869Z,78300.03
2022-09-22T06:14:46.419Z,78311.97
2022-09-22T06:17:12.965Z,78300.03
2022-09-22T06:19:40.058Z,78308.00
2022-09-22T06:22:08.152Z,78292.09
2022-09-22T06:24:34.633Z,78284.13
2022-09-22T06:27:01.099Z,78272.19
2022-09-22T06:29:28.414Z,78252.31
2022-09-22T06:31:55.011Z,78240.41
2022-09-22T06:34:23.228Z,78222.50
2022-09-22T06:36:50.188Z,78220.50
2022-09-22T06:39:16.701Z,78202.63
2022-09-22T06:41:44.732Z,78192.69
2022-09-22T06:44:12.971Z,78184.72
2022-09-22T06:46:39.538Z,78162.84
2022-09-22T06:49:06.008Z,78144.97
2022-09-22T06:51:34.709Z,78156.91
2022-09-22T06:54:04.212Z,78148.94
2022-09-22T06:56:39.871Z,78142.97
2022-09-22T06:59:10.997Z,78131.03
2022-09-22T07:01:38.473Z,78129.06
2022-09-22T07:04:05.194Z,78119.13
2022-09-22T07:06:31.927Z,78117.13
2022-09-22T07:08:58.465Z,78107.19
2022-09-22T07:11:24.989Z,78087.31
2022-09-22T07:13:54.275Z,78075.38
2022-09-22T07:16:23.102Z,78057.50
2022-09-22T07:18:51.892Z,78041.59
2022-09-22T07:21:27.729Z,78025.69
2022-09-22T07:23:56.138Z,78019.72
2022-09-22T07:26:34.499Z,77991.88
2022-09-22T07:29:03.474Z,77983.94
2022-09-22T07:31:32.228Z,77997.84
2022-09-22T07:34:01.640Z,77997.84
2022-09-22T07:36:30.918Z,77987.91
2022-09-22T07:39:03.097Z,77968.03
2022-09-22T07:41:32.164Z,77954.13
2022-09-22T07:44:20.823Z,77942.19
2022-09-22T07:46:47.487Z,77928.28
2022-09-22T07:49:19.382Z,77922.31
2022-09-22T07:51:46.057Z,77914.34
2022-09-22T07:54:12.708Z,77908.38
2022-09-22T07:56:44.445Z,77890.50
2022-09-22T07:59:13.095Z,77876.59
2022-09-22T08:01:44.316Z,77870.63
2022-09-22T08:04:12.563Z,77866.63
2022-09-22T08:06:39.035Z,77860.69
2022-09-22T08:09:08.214Z,77840.78
2022-09-22T08:11:34.707Z,77826.88
2022-09-22T08:14:04.751Z,77810.97
2022-09-22T08:16:33.826Z,77795.06
2022-09-22T08:19:10.450Z,77781.16
2022-09-22T08:21:40.756Z,77779.16
2022-09-22T08:24:15.599Z,77763.28
2022-09-22T08:26:48.072Z,77775.19
2022-09-22T08:29:14.957Z,77761.28
2022-09-22T08:31:42.363Z,77751.34
2022-09-22T08:34:09.564Z,77743.41
2022-09-22T08:36:37.681Z,77717.56
2022-09-22T08:39:05.202Z,77705.63
2022-09-22T08:41:44.611Z,77681.78
2022-09-22T08:44:11.093Z,77675.81
2022-09-22T08:46:45.431Z,77659.91
2022-09-22T08:49:36.112Z,77649.97
2022-09-22T08:52:15.779Z,77646.00
2022-09-22T08:54:44.884Z,77640.03
2022-09-22T08:57:41.340Z,77620.16
2022-09-22T09:00:17.408Z,77608.22
2022-09-22T09:03:16.401Z,77584.38
2022-09-22T09:06:04.199Z,77584.38
2022-09-22T09:08:50.621Z,77584.38
2022-09-22T09:11:48.200Z,77572.44
2022-09-22T09:14:30.244Z,77584.38
2022-09-22T09:17:19.394Z,77588.34
2022-09-22T09:20:27.452Z,77566.47
2022-09-22T09:22:58.341Z,77518.78
2022-09-22T09:25:44.155Z,77488.97
2022-09-22T09:28:42.138Z,77469.09
2022-09-22T09:31:21.707Z,77479.03
2022-09-22T09:34:06.142Z,77516.78
2022-09-22T09:36:37.894Z,77516.78
2022-09-22T09:39:17.769Z,77534.69
2022-09-22T09:41:48.438Z,77542.63
2022-09-22T09:44:22.051Z,77564.50
2022-09-22T09:47:19.945Z,77576.41
2022-09-22T09:49:52.638Z,77600.28
2022-09-22T09:52:20.973Z,77590.34
2022-09-22T09:54:47.615Z,77574.44
2022-09-22T09:57:19.678Z,77556.53
2022-09-22T10:00:07.312Z,77516.78
2022-09-22T10:02:37.839Z,77481.00
2022-09-22T10:05:22.476Z,77445.22
2022-09-22T10:07:54.570Z,77469.09
2022-09-22T10:10:32.807Z,77435.28
2022-09-22T10:13:05.320Z,77415.41
2022-09-22T10:15:36.860Z,77375.66
2022-09-22T10:18:29.776Z,77397.53
2022-09-22T10:21:16.940Z,77343.84
2022-09-22T10:23:49.157Z,77304.09
2022-09-22T10:26:28.155Z,77262.38
2022-09-22T10:29:12.892Z,77232.56
2022-09-22T10:31:40.676Z,77242.50
2022-09-22T10:34:28.405Z,77232.56
2022-09-22T10:36:55.299Z,77248.44
2022-09-22T10:39:32.181Z,77256.41
2022-09-22T10:42:01.833Z,77250.44
2022-09-22T10:44:48.589Z,77248.44
2022-09-22T10:47:31.148Z,77248.44
2022-09-22T10:49:57.576Z,77274.28
2022-09-22T10:52:51.245Z,77254.41
2022-09-22T10:55:35.792Z,77234.53
2022-09-22T10:58:07.193Z,77222.63
2022-09-22T11:00:39.270Z,77194.78
2022-09-22T11:03:24.913Z,77166.97
2022-09-22T11:06:28.522Z,77143.13
2022-09-22T11:09:35.508Z,77174.91
2022-09-22T11:12:20.455Z,77174.91
2022-09-22T11:15:15.590Z,77168.94
2022-09-22T11:18:15.923Z,77145.09
2022-09-22T11:21:02.345Z,77087.47
2022-09-22T11:23:37.982Z,77107.34
2022-09-22T11:26:10.483Z,77093.44
2022-09-22T11:28:57.299Z,77059.63
2022-09-22T11:31:36.917Z,77093.44
2022-09-22T11:34:15.044Z,77113.31
2022-09-22T11:36:51.597Z,77131.19
2022-09-22T11:39:35.091Z,77121.25
2022-09-22T11:42:25.283Z,77131.19
2022-09-22T11:45:21.898Z,77137.16
2022-09-22T11:48:21.755Z,77131.19
2022-09-22T11:51:16.928Z,77111.31
2022-09-22T11:53:58.550Z,77125.22
2022-09-22T11:56:38.618Z,77145.09
2022-09-22T11:59:48.628Z,77145.09
2022-09-22T12:02:27.687Z,77131.19
2022-09-22T12:05:04.296Z,77127.22
2022-09-22T12:07:44.773Z,77111.31
2022-09-22T12:10:25.051Z,77103.38
2022-09-22T12:12:52.986Z,77127.22
2022-09-22T12:15:29.992Z,77117.28
2022-09-22T12:18:10.945Z,77111.31
2022-09-22T12:21:02.866Z,77153.06
2022-09-22T12:23:39.880Z,77172.94
2022-09-22T12:26:27.335Z,77190.81
2022-09-22T12:28:54.660Z,77161.00
2022-09-22T12:31:22.133Z,77161.00
2022-09-22T12:33:54.643Z,77194.78
2022-09-22T12:36:39.734Z,77200.75
2022-09-22T12:39:07.427Z,77188.81
2022-09-22T12:41:44.183Z,77164.97
2022-09-22T12:44:40.944Z,77180.88
2022-09-22T12:47:17.133Z,77168.94
2022-09-22T12:49:56.881Z,77155.03
2022-09-22T12:52:43.659Z,77121.25
2022-09-22T12:55:25.917Z,77099.38
2022-09-22T12:57:52.620Z,77067.59
2022-09-22T13:00:32.880Z,77043.75
2022-09-22T13:03:01.653Z,77033.81
2022-09-22T13:05:28.066Z,77031.81
2022-09-22T13:07:58.351Z,77043.75
2022-09-22T13:10:24.941Z,77073.56
2022-09-22T13:13:04.184Z,77079.50
2022-09-22T13:15:45.995Z,77087.47
2022-09-22T13:18:39.593Z,77121.25
2022-09-22T13:21:12.128Z,77129.19
2022-09-22T13:23:44.644Z,77163.00
2022-09-22T13:26:13.835Z,77163.00
2022-09-22T13:28:40.540Z,77164.97
2022-09-22T13:31:16.094Z,77172.94
2022-09-22T13:33:43.441Z,77176.91
2022-09-22T13:36:14.226Z,77168.94
2022-09-22T13:38:50.851Z,77153.06
2022-09-22T13:41:22.843Z,77151.06
2022-09-22T13:43:54.412Z,77143.13
2022-09-22T13:46:30.890Z,77147.09
2022-09-22T13:48:59.122Z,77166.97
2022-09-22T13:51:26.609Z,77172.94
2022-09-22T13:53:55.511Z,77153.06
2022-09-22T13:56:25.055Z,77161.00
2022-09-22T13:58:56.906Z,77147.09
2022-09-22T14:01:25.374Z,77141.13
2022-09-22T14:03:53.284Z,77109.31
2022-09-22T14:06:33.467Z,77085.47
2022-09-22T14:09:01.647Z,77075.53
2022-09-22T14:11:32.525Z,77081.50
2022-09-22T14:14:02.760Z,77075.53
2022-09-22T14:16:46.248Z,77057.66
2022-09-22T14:19:16.572Z,77061.63
2022-09-22T14:21:52.038Z,77043.75
2022-09-22T14:24:19.067Z,77051.69
2022-09-22T14:27:07.140Z,77075.53
2022-09-22T14:29:38.271Z,77095.41
2022-09-22T14:32:17.457Z,77117.28
2022-09-22T14:34:58.489Z,77125.22
2022-09-22T14:37:40.264Z,77141.13
2022-09-22T14:40:19.685Z,77145.09
2022-09-22T14:42:57.076Z,77163.00
2022-09-22T16:45:07.040Z,77488.97
2022-09-22T16:47:33.619Z,77508.84
2022-09-22T16:50:00.902Z,77520.75
2022-09-22T16:52:29.649Z,77540.63
2022-09-22T16:54:56.092Z,77536.66
2022-09-22T16:57:22.586Z,77548.59
2022-09-22T16:59:50.517Z,77546.59
2022-09-22T17:02:17.012Z,77566.47
2022-09-22T17:04:44.124Z,77574.44
2022-09-22T17:07:10.849Z,77578.41
2022-09-22T17:09:37.559Z,77584.38
2022-09-22T17:12:08.034Z,77604.25
2022-09-22T17:14:37.431Z,77616.16
2022-09-22T17:17:07.414Z,77620.16
2022-09-22T17:19:33.920Z,77644.00
2022-09-22T17:22:00.423Z,77649.97
2022-09-22T17:24:27.149Z,77655.94
2022-09-22T17:26:56.283Z,77657.91
2022-09-22T17:29:26.138Z,77661.88
2022-09-22T17:31:59.239Z,77677.78
2022-09-22T17:34:28.483Z,77673.81
2022-09-22T17:36:55.714Z,77689.72
2022-09-22T17:39:24.204Z,77695.69
2022-09-22T17:41:51.070Z,77699.66
2022-09-22T17:44:21.242Z,77709.59
2022-09-22T17:47:08.670Z,77723.50
2022-09-22T17:49:53.680Z,77731.47
2022-09-22T17:52:29.259Z,77739.41
2022-09-22T17:55:09.648Z,77753.34
2022-09-22T17:57:41.323Z,77759.28
2022-09-22T18:00:11.300Z,77759.28
2022-09-22T18:02:38.980Z,77771.22
2022-09-22T18:05:07.509Z,77777.19
2022-09-22T18:07:38.278Z,77769.22
2022-09-22T18:10:06.810Z,77787.13
2022-09-22T18:12:34.227Z,77797.06
2022-09-22T18:15:03.421Z,77805.00
2022-09-22T18:17:33.074Z,77795.06
2022-09-22T18:20:00.223Z,77812.97
2022-09-22T18:22:28.122Z,77824.91
2022-09-22T18:24:56.230Z,77830.84
2022-09-22T18:27:27.022Z,77822.91
2022-09-22T18:29:58.453Z,77836.81
2022-09-22T18:32:28.284Z,77848.75
2022-09-22T18:34:55.483Z,77858.69
2022-09-22T18:37:23.288Z,77854.72
2022-09-22T18:39:50.595Z,77864.66
2022-09-22T18:42:22.730Z,77874.59
2022-09-22T18:44:49.220Z,77852.72
2022-09-22T18:47:18.560Z,77868.63
2022-09-22T18:49:51.827Z,77886.53
2022-09-22T18:52:24.285Z,77894.47
2022-09-22T18:54:56.003Z,77908.38
2022-09-22T18:57:25.792Z,77906.41
2022-09-22T18:59:54.016Z,77922.31
2022-09-22T19:02:21.615Z,77930.25
2022-09-22T19:04:49.148Z,77942.19
2022-09-22T19:07:38.913Z,77946.16
2022-09-22T19:10:08.618Z,77950.13
2022-09-22T19:12:39.755Z,77952.13
2022-09-22T19:15:18.701Z,77946.16
2022-09-22T19:17:50.658Z,77954.13
2022-09-22T19:20:21.395Z,77964.06
2022-09-22T19:22:49.408Z,77944.16
2022-09-22T19:25:16.708Z,77932.25
2022-09-22T19:27:43.231Z,77970.00
2022-09-22T19:30:11.524Z,77989.91
2022-09-22T19:32:39.253Z,77972.00
2022-09-22T19:35:06.668Z,77979.97
2022-09-22T19:37:35.832Z,77987.91
2022-09-22T19:40:19.093Z,77997.84
2022-09-22T19:42:49.481Z,78003.81
2022-09-22T19:45:16.381Z,78009.78
2022-09-22T19:47:47.283Z,78031.66
2022-09-22T19:50:14.386Z,78015.75
2022-09-22T19:52:40.988Z,78029.66
2022-09-22T19:55:09.266Z,78035.63
2022-09-22T19:57:41.364Z,78043.56
2022-09-22T20:00:12.064Z,78057.50
2022-09-22T20:02:38.579Z,78059.47
2022-09-22T20:05:11.545Z,78063.44
2022-09-22T20:07:38.630Z,78051.53
2022-09-22T20:10:07.243Z,78059.47
2022-09-22T20:12:33.855Z,78049.53
2022-09-22T20:15:00.369Z,78049.53
2022-09-22T20:17:28.741Z,78033.63
2022-09-22T20:19:55.344Z,78045.56
2022-09-22T20:22:25.472Z,78065.44
2022-09-22T20:24:54.781Z,78079.34
2022-09-22T20:27:26.641Z,78083.34
2022-09-22T20:29:57.656Z,78091.28
2022-09-22T20:32:31.590Z,78097.25
2022-09-22T20:34:58.274Z,78105.19
2022-09-22T20:37:25.066Z,78097.25
2022-09-22T20:39:52.177Z,78087.31
2022-09-22T20:42:18.751Z,78095.25
2022-09-22T20:44:47.550Z,78091.28
2022-09-22T20:47:16.443Z,78111.16
2022-09-22T20:49:45.838Z,78109.19
2022-09-22T20:52:16.503Z,78105.19
2022-09-22T20:54:44.173Z,78113.16
2022-09-22T20:57:11.317Z,78121.09
2022-09-22T20:59:39.087Z,78085.31
2022-09-22T21:02:07.253Z,78105.19
2022-09-22T21:04:34.125Z,78117.13
2022-09-22T21:07:00.684Z,78117.13
2022-09-22T21:09:45.995Z,78123.09
2022-09-22T21:12:13.550Z,78137.00
2022-09-22T21:14:44.375Z,78148.94
2022-09-22T21:17:10.964Z,78158.88
2022-09-22T21:19:37.579Z,78166.84
2022-09-22T21:22:05.065Z,78144.97
2022-09-22T21:24:32.605Z,78144.97
2022-09-22T21:26:59.752Z,78150.94
2022-09-22T21:29:26.362Z,78156.91
2022-09-22T21:31:52.932Z,78152.91
2022-09-22T21:34:20.040Z,78144.97
2022-09-22T21:36:46.707Z,78156.91
2022-09-22T21:39:13.466Z,78168.81
2022-09-22T21:41:40.168Z,78172.78
2022-09-22T21:44:07.307Z,78170.81
2022-09-22T21:46:40.213Z,78180.75
2022-09-22T21:49:07.583Z,78190.69
2022-09-22T21:51:42.244Z,78172.78
2022-09-22T21:54:13.455Z,78174.78
2022-09-22T21:56:40.187Z,78182.75
2022-09-22T21:59:06.681Z,78162.84
2022-09-22T22:01:36.018Z,78156.91
2022-09-22T22:04:04.918Z,78172.78
2022-09-22T22:06:34.519Z,78192.69
2022-09-22T22:09:13.000Z,78184.72
2022-09-22T22:11:42.980Z,78174.78
2022-09-22T22:14:12.153Z,78184.72
2022-09-22T22:16:44.279Z,78192.69
2022-09-22T22:19:13.471Z,78202.63
2022-09-22T22:21:41.517Z,78204.59
2022-09-22T22:24:19.124Z,78204.59
2022-09-22T22:26:51.458Z,78200.63
2022-09-22T22:29:19.554Z,78206.59
2022-09-22T22:31:47.870Z,78214.53
2022-09-22T22:34:16.127Z,78212.56
2022-09-22T22:36:43.452Z,78214.53
2022-09-22T22:39:11.169Z,78220.50
2022-09-22T22:41:38.973Z,78218.53
2022-09-22T22:44:07.170Z,78220.50
2022-09-22T22:46:34.673Z,78224.50
2022-09-22T22:49:01.438Z,78208.59
2022-09-22T22:51:27.887Z,78190.69
2022-09-22T22:53:57.739Z,78196.66
2022-09-22T22:56:26.468Z,78206.59
2022-09-22T22:58:53.679Z,78212.56
2022-09-22T23:01:28.779Z,78226.47
2022-09-22T23:04:00.684Z,78222.50
2022-09-22T23:06:39.686Z,78224.50
2022-09-22T23:09:08.399Z,78214.53
2022-09-22T23:11:37.830Z,78254.31
2022-09-22T23:14:07.084Z,78256.28
2022-09-22T23:16:36.623Z,78262.25
2022-09-22T23:19:07.250Z,78248.34
2022-09-22T23:21:35.275Z,78260.28
2022-09-22T23:24:02.834Z,78266.25
2022-09-22T23:26:29.847Z,78276.19
2022-09-22T23:28:59.929Z,78284.13
2022-09-22T23:31:26.713Z,78292.09
2022-09-22T23:33:54.090Z,78290.09
2022-09-22T23:36:25.807Z,78292.09
2022-09-22T23:39:04.294Z,78298.06
2022-09-22T23:41:36.665Z,78282.16
2022-09-22T23:44:06.691Z,78298.06
2022-09-22T23:46:34.069Z,78284.13
2022-09-22T23:49:00.710Z,78280.16
2022-09-22T23:51:27.439Z,78284.13
2022-09-22T23:53:53.999Z,78292.09
2022-09-22T23:56:20.612Z,78284.13
2022-09-22T23:58:47.624Z,78284.13
